sensor_id;sensor_type;location;lat;lon;timestamp;pressure;altitude;pressure_sealevel;temperature;humidity
3260;BME280;22469;48.150;14.004;2022-07-10T00:01:32;98440.03;;;20.70;69.36
3260;BME280;22469;48.150;14.004;2022-07-10T00:04:00;98433.25;;;20.67;69.85
3260;BME280;22469;48.150;14.004;2022-07-10T00:06:27;98438.81;;;20.75;69.31
3260;BME280;22469;48.150;14.004;2022-07-10T00:08:54;98444.22;;;20.72;69.43
3260;BME280;22469;48.150;14.004;2022-07-10T00:11:22;98446.00;;;20.72;69.46
3260;BME280;22469;48.150;14.004;2022-07-10T00:13:49;98444.19;;;20.59;69.36
3260;BME280;22469;48.150;14.004;2022-07-10T00:16:16;98430.97;;;20.63;69.92
3260;BME280;22469;48.150;14.004;2022-07-10T00:18:43;98425.94;;;20.59;69.83
3260;BME280;22469;48.150;14.004;2022-07-10T00:21:10;98424.56;;;20.54;70.42
3260;BME280;22469;48.150;14.004;2022-07-10T00:23:38;98424.28;;;20.58;70.23
3260;BME280;22469;48.150;14.004;2022-07-10T00:26:05;98429.97;;;20.51;69.86
3260;BME280;22469;48.150;14.004;2022-07-10T00:28:32;98420.47;;;20.50;70.80
3260;BME280;22469;48.150;14.004;2022-07-10T00:30:59;98424.81;;;20.36;70.53
3260;BME280;22469;48.150;14.004;2022-07-10T00:33:26;98427.41;;;20.36;70.66
3260;BME280;22469;48.150;14.004;2022-07-10T00:35:54;98423.59;;;20.15;71.78
3260;BME280;22469;48.150;14.004;2022-07-10T00:38:21;98429.25;;;20.22;71.68
3260;BME280;22469;48.150;14.004;2022-07-10T00:40:48;98419.41;;;20.12;71.73
3260;BME280;22469;48.150;14.004;2022-07-10T00:43:15;98423.03;;;20.24;71.87
3260;BME280;22469;48.150;14.004;2022-07-10T00:45:43;98421.09;;;20.13;71.92
3260;BME280;22469;48.150;14.004;2022-07-10T00:48:10;98416.56;;;20.03;72.12
3260;BME280;22469;48.150;14.004;2022-07-10T00:50:37;98413.94;;;20.17;72.24
3260;BME280;22469;48.150;14.004;2022-07-10T00:53:05;98416.28;;;20.34;71.50
3260;BME280;22469;48.150;14.004;2022-07-10T00:55:32;98412.75;;;20.48;71.18
3260;BME280;22469;48.150;14.004;2022-07-10T00:58:01;98416.03;;;20.52;71.75
3260;BME280;22469;48.150;14.004;2022-07-10T01:00:28;98429.06;;;20.52;71.43
3260;BME280;22469;48.150;14.004;2022-07-10T01:02:56;98427.28;;;20.52;71.48
3260;BME280;22469;48.150;14.004;2022-07-10T01:05:24;98422.50;;;20.59;71.04
3260;BME280;22469;48.150;14.004;2022-07-10T01:07:51;98425.22;;;20.70;70.67
3260;BME280;22469;48.150;14.004;2022-07-10T01:10:18;98424.00;;;20.76;70.96
3260;BME280;22469;48.150;14.004;2022-07-10T01:12:45;98415.97;;;20.79;70.95
3260;BME280;22469;48.150;14.004;2022-07-10T01:15:13;98408.78;;;20.82;71.22
3260;BME280;22469;48.150;14.004;2022-07-10T01:17:40;98405.09;;;20.85;70.69
3260;BME280;22469;48.150;14.004;2022-07-10T01:20:08;98405.66;;;20.90;70.66
3260;BME280;22469;48.150;14.004;2022-07-10T01:22:37;98402.84;;;20.93;70.18
3260;BME280;22469;48.150;14.004;2022-07-10T01:25:05;98399.47;;;20.91;70.25
3260;BME280;22469;48.150;14.004;2022-07-10T01:27:32;98396.03;;;20.91;70.69
3260;BME280;22469;48.150;14.004;2022-07-10T01:30:00;98397.72;;;20.92;70.66
3260;BME280;22469;48.150;14.004;2022-07-10T01:32:36;98396.03;;;20.91;69.84
3260;BME280;22469;48.150;14.004;2022-07-10T01:35:05;98391.78;;;20.90;69.61
3260;BME280;22469;48.150;14.004;2022-07-10T01:37:33;98401.38;;;20.89;70.32
3260;BME280;22469;48.150;14.004;2022-07-10T01:40:01;98391.03;;;20.88;70.25
3260;BME280;22469;48.150;14.004;2022-07-10T01:42:29;98385.41;;;20.81;70.39
3260;BME280;22469;48.150;14.004;2022-07-10T01:44:56;98387.19;;;20.80;70.69
3260;BME280;22469;48.150;14.004;2022-07-10T01:47:29;98384.88;;;20.76;70.80
3260;BME280;22469;48.150;14.004;2022-07-10T01:49:56;98381.13;;;20.67;70.84
3260;BME280;22469;48.150;14.004;2022-07-10T01:52:23;98374.13;;;20.68;70.85
3260;BME280;22469;48.150;14.004;2022-07-10T01:54:51;98366.72;;;20.74;70.75
3260;BME280;22469;48.150;14.004;2022-07-10T01:57:18;98352.66;;;20.77;71.03
3260;BME280;22469;48.150;14.004;2022-07-10T01:59:45;98360.34;;;20.78;70.30
3260;BME280;22469;48.150;14.004;2022-07-10T02:02:12;98360.47;;;20.77;70.91
3260;BME280;22469;48.150;14.004;2022-07-10T02:04:39;98357.03;;;20.76;70.47
3260;BME280;22469;48.150;14.004;2022-07-10T02:07:10;98357.03;;;20.76;70.28
3260;BME280;22469;48.150;14.004;2022-07-10T02:09:38;98349.31;;;20.75;70.51
3260;BME280;22469;48.150;14.004;2022-07-10T02:12:11;98350.16;;;20.63;70.57
3260;BME280;22469;48.150;14.004;2022-07-10T02:14:41;98338.03;;;20.49;71.31
3260;BME280;22469;48.150;14.004;2022-07-10T02:17:08;98341.28;;;20.52;71.50
3260;BME280;22469;48.150;14.004;2022-07-10T02:19:35;98327.09;;;20.56;71.25
3260;BME280;22469;48.150;14.004;2022-07-10T02:22:02;98332.44;;;20.55;71.62
3260;BME280;22469;48.150;14.004;2022-07-10T02:24:30;98342.28;;;20.50;71.56
3260;BME280;22469;48.150;14.004;2022-07-10T02:26:57;98341.94;;;20.29;72.49
3260;BME280;22469;48.150;14.004;2022-07-10T02:29:24;98341.00;;;20.30;72.58
3260;BME280;22469;48.150;14.004;2022-07-10T02:31:52;98342.59;;;20.32;72.06
3260;BME280;22469;48.150;14.004;2022-07-10T02:34:19;98336.03;;;20.40;71.71
3260;BME280;22469;48.150;14.004;2022-07-10T02:36:46;98338.31;;;20.44;72.29
3260;BME280;22469;48.150;14.004;2022-07-10T02:39:13;98344.78;;;20.39;71.96
3260;BME280;22469;48.150;14.004;2022-07-10T02:41:40;98328.53;;;20.35;72.48
3260;BME280;22469;48.150;14.004;2022-07-10T02:44:08;98328.31;;;20.38;72.51
3260;BME280;22469;48.150;14.004;2022-07-10T02:46:35;98335.31;;;20.38;72.72
3260;BME280;22469;48.150;14.004;2022-07-10T02:49:02;98336.66;;;20.43;72.00
3260;BME280;22469;48.150;14.004;2022-07-10T02:51:30;98333.97;;;20.45;71.94
3260;BME280;22469;48.150;14.004;2022-07-10T02:53:58;98328.63;;;20.46;71.91
3260;BME280;22469;48.150;14.004;2022-07-10T02:56:25;98338.44;;;20.43;72.21
3260;BME280;22469;48.150;14.004;2022-07-10T02:58:52;98327.06;;;20.44;72.38
3260;BME280;22469;48.150;14.004;2022-07-10T03:01:20;98333.84;;;20.46;72.10
3260;BME280;22469;48.150;14.004;2022-07-10T03:03:47;98339.06;;;20.46;71.72
3260;BME280;22469;48.150;14.004;2022-07-10T03:06:14;98338.09;;;20.47;71.45
3260;BME280;22469;48.150;14.004;2022-07-10T03:08:41;98342.81;;;20.42;72.16
3260;BME280;22469;48.150;14.004;2022-07-10T03:11:09;98337.41;;;20.45;71.82
3260;BME280;22469;48.150;14.004;2022-07-10T03:13:36;98341.38;;;20.51;71.53
3260;BME280;22469;48.150;14.004;2022-07-10T03:16:04;98340.97;;;20.57;71.29
3260;BME280;22469;48.150;14.004;2022-07-10T03:18:31;98347.00;;;20.57;71.57
3260;BME280;22469;48.150;14.004;2022-07-10T03:20:59;98334.41;;;20.51;71.72
3260;BME280;22469;48.150;14.004;2022-07-10T03:23:26;98337.41;;;20.58;71.63
3260;BME280;22469;48.150;14.004;2022-07-10T03:25:53;98339.94;;;20.59;71.62
3260;BME280;22469;48.150;14.004;2022-07-10T03:28:20;98340.56;;;20.63;71.39
3260;BME280;22469;48.150;14.004;2022-07-10T03:30:47;98337.13;;;20.63;71.72
3260;BME280;22469;48.150;14.004;2022-07-10T03:33:14;98340.56;;;20.63;71.50
3260;BME280;22469;48.150;14.004;2022-07-10T03:35:41;98340.53;;;20.50;72.08
3260;BME280;22469;48.150;14.004;2022-07-10T03:38:08;98337.94;;;20.50;71.51
3260;BME280;22469;48.150;14.004;2022-07-10T03:40:35;98337.03;;;20.51;71.28
3260;BME280;22469;48.150;14.004;2022-07-10T03:43:02;98341.28;;;20.52;71.97
3260;BME280;22469;48.150;14.004;2022-07-10T03:45:29;98338.84;;;20.49;71.93
3260;BME280;22469;48.150;14.004;2022-07-10T03:47:56;98327.59;;;20.49;71.60
3260;BME280;22469;48.150;14.004;2022-07-10T03:50:24;98334.66;;;20.47;71.86
3260;BME280;22469;48.150;14.004;2022-07-10T03:52:51;98336.44;;;20.46;71.75
3260;BME280;22469;48.150;14.004;2022-07-10T03:55:18;98337.19;;;20.48;71.44
3260;BME280;22469;48.150;14.004;2022-07-10T03:57:45;98338.75;;;20.51;71.24
3260;BME280;22469;48.150;14.004;2022-07-10T04:00:25;98335.03;;;20.55;70.78
3260;BME280;22469;48.150;14.004;2022-07-10T04:02:55;98346.19;;;20.57;70.60
3260;BME280;22469;48.150;14.004;2022-07-10T04:05:26;98340.13;;;20.56;70.84
3260;BME280;22469;48.150;14.004;2022-07-10T04:07:55;98345.56;;;20.53;70.63
3260;BME280;22469;48.150;14.004;2022-07-10T04:10:25;98338.69;;;20.52;70.62
3260;BME280;22469;48.150;14.004;2022-07-10T04:12:53;98343.69;;;20.55;70.95
3260;BME280;22469;48.150;14.004;2022-07-10T04:15:21;98349.63;;;20.57;70.62
3260;BME280;22469;48.150;14.004;2022-07-10T04:17:49;98347.97;;;20.56;70.31
3260;BME280;22469;48.150;14.004;2022-07-10T04:20:18;98347.84;;;20.58;70.79
3260;BME280;22469;48.150;14.004;2022-07-10T04:22:45;98341.72;;;20.59;70.62
3260;BME280;22469;48.150;14.004;2022-07-10T04:25:13;98344.41;;;20.57;71.13
3260;BME280;22469;48.150;14.004;2022-07-10T04:27:40;98348.50;;;20.62;70.70
3260;BME280;22469;48.150;14.004;2022-07-10T04:30:08;98346.59;;;20.64;70.96
3260;BME280;22469;48.150;14.004;2022-07-10T04:32:35;98345.78;;;20.63;70.73
3260;BME280;22469;48.150;14.004;2022-07-10T04:35:02;98331.91;;;20.63;71.27
3260;BME280;22469;48.150;14.004;2022-07-10T04:37:30;98331.59;;;20.67;70.85
3260;BME280;22469;48.150;14.004;2022-07-10T04:39:57;98330.44;;;20.71;70.74
3260;BME280;22469;48.150;14.004;2022-07-10T04:42:25;98331.06;;;20.75;70.92
3260;BME280;22469;48.150;14.004;2022-07-10T04:44:53;98334.41;;;20.77;70.30
3260;BME280;22469;48.150;14.004;2022-07-10T04:47:20;98340.34;;;20.79;70.41
3260;BME280;22469;48.150;14.004;2022-07-10T04:49:47;98335.16;;;20.79;71.10
3260;BME280;22469;48.150;14.004;2022-07-10T04:52:14;98340.78;;;20.86;70.58
3260;BME280;22469;48.150;14.004;2022-07-10T04:54:42;98330.22;;;20.87;70.29
3260;BME280;22469;48.150;14.004;2022-07-10T04:57:09;98330.34;;;20.86;70.27
3260;BME280;22469;48.150;14.004;2022-07-10T04:59:36;98329.94;;;20.79;69.57
3260;BME280;22469;48.150;14.004;2022-07-10T05:02:03;98336.69;;;20.81;69.71
3260;BME280;22469;48.150;14.004;2022-07-10T05:04:31;98335.44;;;20.87;70.31
3260;BME280;22469;48.150;14.004;2022-07-10T05:06:58;98332.84;;;20.87;70.07
3260;BME280;22469;48.150;14.004;2022-07-10T05:09:25;98329.91;;;20.92;69.28
3260;BME280;22469;48.150;14.004;2022-07-10T05:11:52;98330.84;;;20.91;69.08
3260;BME280;22469;48.150;14.004;2022-07-10T05:14:19;98340.03;;;20.83;68.34
3260;BME280;22469;48.150;14.004;2022-07-10T05:16:47;98339.22;;;20.83;69.04
3260;BME280;22469;48.150;14.004;2022-07-10T05:19:14;98338.88;;;20.88;68.70
3260;BME280;22469;48.150;14.004;2022-07-10T05:21:41;98342.53;;;20.85;68.12
3260;BME280;22469;48.150;14.004;2022-07-10T05:24:08;98338.59;;;20.92;68.00
3260;BME280;22469;48.150;14.004;2022-07-10T05:26:35;98342.09;;;21.04;68.71
3260;BME280;22469;48.150;14.004;2022-07-10T05:29:03;98342.50;;;21.11;68.54
3260;BME280;22469;48.150;14.004;2022-07-10T05:31:30;98351.56;;;21.18;68.34
3260;BME280;22469;48.150;14.004;2022-07-10T05:33:57;98346.75;;;21.24;68.40
3260;BME280;22469;48.150;14.004;2022-07-10T05:36:25;98347.72;;;21.23;67.51
3260;BME280;22469;48.150;14.004;2022-07-10T05:38:52;98344.97;;;21.25;67.20
3260;BME280;22469;48.150;14.004;2022-07-10T05:41:19;98345.91;;;21.37;67.57
3260;BME280;22469;48.150;14.004;2022-07-10T05:43:46;98356.53;;;21.46;67.05
3260;BME280;22469;48.150;14.004;2022-07-10T05:46:13;98353.22;;;21.44;65.64
3260;BME280;22469;48.150;14.004;2022-07-10T05:48:40;98354.53;;;21.50;65.08
3260;BME280;22469;48.150;14.004;2022-07-10T05:51:08;98363.13;;;21.52;64.63
3260;BME280;22469;48.150;14.004;2022-07-10T05:53:55;98358.97;;;21.24;63.42
3260;BME280;22469;48.150;14.004;2022-07-10T05:56:22;98357.91;;;21.39;64.52
3260;BME280;22469;48.150;14.004;2022-07-10T05:58:49;98359.06;;;21.48;64.68
3260;BME280;22469;48.150;14.004;2022-07-10T06:01:16;98359.06;;;21.48;63.96
3260;BME280;22469;48.150;14.004;2022-07-10T06:03:44;98364.28;;;21.22;63.03
3260;BME280;22469;48.150;14.004;2022-07-10T06:06:12;98368.47;;;21.12;63.60
3260;BME280;22469;48.150;14.004;2022-07-10T06:08:43;98367.72;;;21.23;63.62
3260;BME280;22469;48.150;14.004;2022-07-10T06:11:11;98370.06;;;21.15;63.43
3260;BME280;22469;48.150;14.004;2022-07-10T06:13:39;98368.28;;;21.15;63.84
3260;BME280;22469;48.150;14.004;2022-07-10T06:16:06;98364.97;;;21.00;63.54
3260;BME280;22469;48.150;14.004;2022-07-10T06:18:34;98366.41;;;21.04;64.07
3260;BME280;22469;48.150;14.004;2022-07-10T06:21:01;98363.81;;;20.92;64.10
3260;BME280;22469;48.150;14.004;2022-07-10T06:23:29;98360.97;;;20.95;63.72
3260;BME280;22469;48.150;14.004;2022-07-10T06:25:57;98361.72;;;21.10;63.19
3260;BME280;22469;48.150;14.004;2022-07-10T06:28:24;98354.19;;;21.05;63.76
3260;BME280;22469;48.150;14.004;2022-07-10T06:30:51;98358.69;;;20.77;63.86
3260;BME280;22469;48.150;14.004;2022-07-10T06:33:26;98362.56;;;20.85;64.35
3260;BME280;22469;48.150;14.004;2022-07-10T06:35:53;98361.22;;;20.79;63.50
3260;BME280;22469;48.150;14.004;2022-07-10T06:38:20;98363.09;;;20.77;63.07
3260;BME280;22469;48.150;14.004;2022-07-10T06:40:47;98366.78;;;20.47;63.98
3260;BME280;22469;48.150;14.004;2022-07-10T06:43:14;98356.56;;;20.31;64.03
3260;BME280;22469;48.150;14.004;2022-07-10T06:45:41;98356.41;;;20.60;63.83
3260;BME280;22469;48.150;14.004;2022-07-10T06:48:09;98349.31;;;20.88;63.43
3260;BME280;22469;48.150;14.004;2022-07-10T06:50:37;98351.63;;;20.92;62.60
3260;BME280;22469;48.150;14.004;2022-07-10T06:53:05;98340.78;;;20.86;62.64
3260;BME280;22469;48.150;14.004;2022-07-10T06:55:33;98343.81;;;20.92;62.07
3260;BME280;22469;48.150;14.004;2022-07-10T06:58:01;98341.34;;;21.27;61.57
3260;BME280;22469;48.150;14.004;2022-07-10T07:00:29;98341.34;;;21.15;61.78
3260;BME280;22469;48.150;14.004;2022-07-10T07:02:56;98352.25;;;20.83;62.70
3260;BME280;22469;48.150;14.004;2022-07-10T07:05:23;98354.44;;;20.76;62.60
3260;BME280;22469;48.150;14.004;2022-07-10T07:07:50;98354.41;;;21.02;62.17
3260;BME280;22469;48.150;14.004;2022-07-10T07:10:17;98352.25;;;21.33;62.31
3260;BME280;22469;48.150;14.004;2022-07-10T07:12:45;98359.41;;;21.67;60.58
3260;BME280;22469;48.150;14.004;2022-07-10T07:15:12;98352.25;;;21.33;60.83
3260;BME280;22469;48.150;14.004;2022-07-10T07:17:42;98350.34;;;21.11;61.89
3260;BME280;22469;48.150;14.004;2022-07-10T07:20:27;98341.50;;;21.50;60.28
3260;BME280;22469;48.150;14.004;2022-07-10T07:23:13;98339.44;;;21.42;60.96
3260;BME280;22469;48.150;14.004;2022-07-10T07:25:40;98346.69;;;21.87;60.67
3260;BME280;22469;48.150;14.004;2022-07-10T07:28:17;98351.97;;;21.74;60.36
3260;BME280;22469;48.150;14.004;2022-07-10T07:30:47;98349.84;;;21.55;60.10
3260;BME280;22469;48.150;14.004;2022-07-10T07:33:15;98352.22;;;21.71;59.76
3260;BME280;22469;48.150;14.004;2022-07-10T07:35:42;98358.34;;;21.70;59.13
3260;BME280;22469;48.150;14.004;2022-07-10T07:38:10;98351.13;;;21.97;58.47
3260;BME280;22469;48.150;14.004;2022-07-10T07:40:37;98349.13;;;21.77;58.15
3260;BME280;22469;48.150;14.004;2022-07-10T07:43:04;98357.03;;;21.64;59.35
3260;BME280;22469;48.150;14.004;2022-07-10T07:45:31;98346.81;;;21.61;59.71
3260;BME280;22469;48.150;14.004;2022-07-10T07:47:59;98350.31;;;21.36;61.31
3260;BME280;22469;48.150;14.004;2022-07-10T07:50:34;98347.81;;;21.22;61.30
3260;BME280;22469;48.150;14.004;2022-07-10T07:53:04;98341.00;;;21.32;61.34
3260;BME280;22469;48.150;14.004;2022-07-10T07:55:33;98343.19;;;21.51;59.89
3260;BME280;22469;48.150;14.004;2022-07-10T07:58:01;98345.50;;;21.43;59.87
3260;BME280;22469;48.150;14.004;2022-07-10T08:00:30;98347.56;;;21.50;59.40
3260;BME280;22469;48.150;14.004;2022-07-10T08:02:59;98349.91;;;21.66;59.11
3260;BME280;22469;48.150;14.004;2022-07-10T08:05:28;98341.38;;;21.64;59.33
3260;BME280;22469;48.150;14.004;2022-07-10T08:07:59;98330.41;;;21.83;60.21
3260;BME280;22469;48.150;14.004;2022-07-10T08:10:32;98326.44;;;22.01;59.27
3260;BME280;22469;48.150;14.004;2022-07-10T08:13:00;98321.50;;;22.10;58.42
3260;BME280;22469;48.150;14.004;2022-07-10T08:15:28;98318.63;;;22.37;57.22
3260;BME280;22469;48.150;14.004;2022-07-10T08:17:58;98313.88;;;22.07;56.29
3260;BME280;22469;48.150;14.004;2022-07-10T08:20:27;98315.09;;;22.14;55.38
3260;BME280;22469;48.150;14.004;2022-07-10T08:22:55;98316.69;;;21.92;56.92
3260;BME280;22469;48.150;14.004;2022-07-10T08:25:27;98320.88;;;22.30;56.73
3260;BME280;22469;48.150;14.004;2022-07-10T08:28:01;98310.94;;;22.46;55.45
3260;BME280;22469;48.150;14.004;2022-07-10T08:30:30;98307.13;;;22.51;55.25
3260;BME280;22469;48.150;14.004;2022-07-10T08:32:57;98310.06;;;22.35;55.62
3260;BME280;22469;48.150;14.004;2022-07-10T08:35:25;98312.81;;;22.33;55.82
3260;BME280;22469;48.150;14.004;2022-07-10T08:37:52;98317.25;;;22.89;54.16
3260;BME280;22469;48.150;14.004;2022-07-10T08:40:21;98308.22;;;22.70;53.10
3260;BME280;22469;48.150;14.004;2022-07-10T08:42:49;98313.19;;;22.40;53.88
3260;BME280;22469;48.150;14.004;2022-07-10T08:45:17;98308.16;;;22.01;55.42
3260;BME280;22469;48.150;14.004;2022-07-10T08:47:44;98324.41;;;21.94;55.40
3260;BME280;22469;48.150;14.004;2022-07-10T08:50:22;98319.28;;;21.92;55.83
3260;BME280;22469;48.150;14.004;2022-07-10T08:55:24;98323.78;;;21.66;56.92
3260;BME280;22469;48.150;14.004;2022-07-10T08:57:54;98331.31;;;21.71;56.57
3260;BME280;22469;48.150;14.004;2022-07-10T09:00:23;98334.56;;;21.62;57.77
3260;BME280;22469;48.150;14.004;2022-07-10T09:02:53;98322.50;;;21.96;56.41
3260;BME280;22469;48.150;14.004;2022-07-10T09:05:25;98325.38;;;22.04;56.81
3260;BME280;22469;48.150;14.004;2022-07-10T09:07:53;98331.91;;;22.22;56.21
3260;BME280;22469;48.150;14.004;2022-07-10T09:10:24;98329.97;;;21.89;56.50
3260;BME280;22469;48.150;14.004;2022-07-10T09:13:00;98329.75;;;22.16;56.04
3260;BME280;22469;48.150;14.004;2022-07-10T09:15:32;98339.66;;;22.35;55.37
3260;BME280;22469;48.150;14.004;2022-07-10T09:18:02;98332.78;;;22.45;54.62
3260;BME280;22469;48.150;14.004;2022-07-10T09:20:34;98328.19;;;22.71;54.25
3260;BME280;22469;48.150;14.004;2022-07-10T09:23:15;98334.72;;;22.66;53.63
3260;BME280;22469;48.150;14.004;2022-07-10T09:25:48;98323.06;;;22.59;53.41
3260;BME280;22469;48.150;14.004;2022-07-10T09:28:19;98338.78;;;22.81;52.34
3260;BME280;22469;48.150;14.004;2022-07-10T09:30:48;98338.53;;;22.62;53.38
3260;BME280;22469;48.150;14.004;2022-07-10T09:33:26;98329.38;;;22.79;52.94
3260;BME280;22469;48.150;14.004;2022-07-10T09:36:08;98329.97;;;22.60;52.50
3260;BME280;22469;48.150;14.004;2022-07-10T09:43:54;98333.53;;;23.37;49.79
3260;BME280;22469;48.150;14.004;2022-07-10T09:46:28;98330.94;;;23.49;49.19
3260;BME280;22469;48.150;14.004;2022-07-10T09:49:05;98332.56;;;23.61;48.38
3260;BME280;22469;48.150;14.004;2022-07-10T09:51:41;98320.19;;;23.63;47.92
3260;BME280;22469;48.150;14.004;2022-07-10T09:54:15;98328.28;;;23.60;46.88
3260;BME280;22469;48.150;14.004;2022-07-10T09:56:45;98327.94;;;23.53;47.22
3260;BME280;22469;48.150;14.004;2022-07-10T09:59:16;98324.00;;;23.70;47.88
3260;BME280;22469;48.150;14.004;2022-07-10T10:01:52;98326.38;;;23.73;45.73
3260;BME280;22469;48.150;14.004;2022-07-10T10:04:21;98326.03;;;23.44;45.61
3260;BME280;22469;48.150;14.004;2022-07-10T10:06:59;98323.22;;;23.36;45.04
3260;BME280;22469;48.150;14.004;2022-07-10T10:09:37;98322.63;;;23.21;47.00
3260;BME280;22469;48.150;14.004;2022-07-10T10:14:44;98324.81;;;23.71;45.11
3260;BME280;22469;48.150;14.004;2022-07-10T10:17:12;98328.94;;;23.84;44.93
3260;BME280;22469;48.150;14.004;2022-07-10T10:19:42;98332.69;;;23.71;45.43
3260;BME280;22469;48.150;14.004;2022-07-10T10:22:29;98330.94;;;23.49;44.30
3260;BME280;22469;48.150;14.004;2022-07-10T10:24:57;98335.00;;;23.30;44.51
3260;BME280;22469;48.150;14.004;2022-07-10T10:27:25;98324.03;;;23.36;44.24
3260;BME280;22469;48.150;14.004;2022-07-10T10:29:52;98330.97;;;23.04;45.03
3260;BME280;22469;48.150;14.004;2022-07-10T10:32:20;98329.16;;;22.70;45.59
3260;BME280;22469;48.150;14.004;2022-07-10T10:34:49;98319.97;;;22.54;47.54
3260;BME280;22469;48.150;14.004;2022-07-10T10:37:37;98328.56;;;22.89;47.45
3260;BME280;22469;48.150;14.004;2022-07-10T10:40:09;98324.75;;;22.60;46.80
3260;BME280;22469;48.150;14.004;2022-07-10T10:42:39;98325.81;;;22.68;45.75
3260;BME280;22469;48.150;14.004;2022-07-10T10:48:13;98334.06;;;22.98;44.55
3260;BME280;22469;48.150;14.004;2022-07-10T10:51:02;98320.34;;;22.71;45.59
3260;BME280;22469;48.150;14.004;2022-07-10T10:53:29;98329.78;;;22.97;45.89
3260;BME280;22469;48.150;14.004;2022-07-10T10:58:45;98321.78;;;23.32;45.07
3260;BME280;22469;48.150;14.004;2022-07-10T11:04:25;98331.69;;;23.28;44.93
3260;BME280;22469;48.150;14.004;2022-07-10T11:06:53;98330.69;;;23.40;43.55
3260;BME280;22469;48.150;14.004;2022-07-10T11:12:07;98329.28;;;22.91;44.38
3260;BME280;22469;48.150;14.004;2022-07-10T11:14:42;98325.94;;;23.34;43.84
3260;BME280;22469;48.150;14.004;2022-07-10T11:17:13;98328.63;;;23.55;43.04
3260;BME280;22469;48.150;14.004;2022-07-10T11:19:40;98328.19;;;23.50;43.31
3260;BME280;22469;48.150;14.004;2022-07-10T11:28:09;98329.03;;;22.72;44.41
3260;BME280;22469;48.150;14.004;2022-07-10T11:33:22;98324.78;;;23.16;45.09
3260;BME280;22469;48.150;14.004;2022-07-10T11:35:52;98330.31;;;23.56;44.09
3260;BME280;22469;48.150;14.004;2022-07-10T11:38:24;98317.78;;;24.03;42.79
3260;BME280;22469;48.150;14.004;2022-07-10T11:40:53;98319.91;;;23.77;42.52
3260;BME280;22469;48.150;14.004;2022-07-10T11:43:22;98324.38;;;23.98;41.02
3260;BME280;22469;48.150;14.004;2022-07-10T11:45:51;98317.75;;;23.82;41.05
3260;BME280;22469;48.150;14.004;2022-07-10T11:48:26;98333.69;;;23.36;41.71
3260;BME280;22469;48.150;14.004;2022-07-10T11:50:53;98335.34;;;22.81;42.92
3260;BME280;22469;48.150;14.004;2022-07-10T11:53:25;98328.78;;;22.64;42.51
3260;BME280;22469;48.150;14.004;2022-07-10T11:55:53;98335.84;;;23.08;42.64
3260;BME280;22469;48.150;14.004;2022-07-10T11:58:21;98333.81;;;23.12;42.43
3260;BME280;22469;48.150;14.004;2022-07-10T12:01:00;98326.63;;;22.80;42.28
3260;BME280;22469;48.150;14.004;2022-07-10T12:03:35;98327.66;;;23.02;42.24
3260;BME280;22469;48.150;14.004;2022-07-10T12:06:05;98328.94;;;22.96;42.04
3260;BME280;22469;48.150;14.004;2022-07-10T12:08:46;98327.97;;;23.42;42.59
3260;BME280;22469;48.150;14.004;2022-07-10T12:11:15;98328.16;;;23.73;40.87
3260;BME280;22469;48.150;14.004;2022-07-10T12:13:48;98335.59;;;23.88;39.76
3260;BME280;22469;48.150;14.004;2022-07-10T12:16:17;98336.31;;;23.79;38.82
3260;BME280;22469;48.150;14.004;2022-07-10T12:18:46;98331.94;;;23.80;39.12
3260;BME280;22469;48.150;14.004;2022-07-10T12:21:14;98328.56;;;23.89;40.66
3260;BME280;22469;48.150;14.004;2022-07-10T12:23:44;98326.81;;;24.10;39.90
3260;BME280;22469;48.150;14.004;2022-07-10T12:26:13;98332.34;;;23.53;40.21
3260;BME280;22469;48.150;14.004;2022-07-10T12:28:51;98337.38;;;23.88;39.84
3260;BME280;22469;48.150;14.004;2022-07-10T12:31:27;98338.00;;;23.80;38.34
3260;BME280;22469;48.150;14.004;2022-07-10T12:33:58;98331.34;;;24.08;39.10
3260;BME280;22469;48.150;14.004;2022-07-10T12:36:52;98340.75;;;24.11;38.27
3260;BME280;22469;48.150;14.004;2022-07-10T12:39:21;98331.72;;;23.60;38.36
3260;BME280;22469;48.150;14.004;2022-07-10T12:47:06;98353.13;;;24.09;37.05
3260;BME280;22469;48.150;14.004;2022-07-10T12:52:34;98372.22;;;23.68;38.16
3260;BME280;22469;48.150;14.004;2022-07-10T12:55:09;98369.06;;;23.85;37.52
3260;BME280;22469;48.150;14.004;2022-07-10T13:00:29;98374.06;;;23.88;38.18
3260;BME280;22469;48.150;14.004;2022-07-10T13:03:11;98364.13;;;24.35;37.54
3260;BME280;22469;48.150;14.004;2022-07-10T13:05:45;98364.91;;;24.68;37.42
3260;BME280;22469;48.150;14.004;2022-07-10T13:08:17;98370.78;;;24.60;37.21
3260;BME280;22469;48.150;14.004;2022-07-10T13:10:56;98370.34;;;24.23;36.10
3260;BME280;22469;48.150;14.004;2022-07-10T13:13:25;98359.53;;;24.48;36.27
3260;BME280;22469;48.150;14.004;2022-07-10T13:15:52;98372.16;;;24.22;36.93
3260;BME280;22469;48.150;14.004;2022-07-10T13:18:25;98362.19;;;24.58;35.97
3260;BME280;22469;48.150;14.004;2022-07-10T13:20:56;98369.97;;;24.59;36.22
3260;BME280;22469;48.150;14.004;2022-07-10T13:23:29;98366.31;;;24.72;36.76
3260;BME280;22469;48.150;14.004;2022-07-10T13:25:57;98374.31;;;24.49;36.53
3260;BME280;22469;48.150;14.004;2022-07-10T13:28:26;98372.88;;;24.24;36.65
3260;BME280;22469;48.150;14.004;2022-07-10T13:30:53;98363.44;;;24.54;36.88
3260;BME280;22469;48.150;14.004;2022-07-10T13:33:20;98374.97;;;25.14;36.21
3260;BME280;22469;48.150;14.004;2022-07-10T13:35:47;98363.00;;;25.00;34.66
3260;BME280;22469;48.150;14.004;2022-07-10T13:38:15;98363.81;;;25.01;35.21
3260;BME280;22469;48.150;14.004;2022-07-10T13:40:44;98352.50;;;24.70;35.56
3260;BME280;22469;48.150;14.004;2022-07-10T13:43:14;98357.00;;;24.89;36.08
3260;BME280;22469;48.150;14.004;2022-07-10T13:45:43;98354.03;;;25.34;35.43
3260;BME280;22469;48.150;14.004;2022-07-10T13:48:14;98356.03;;;25.70;34.82
3260;BME280;22469;48.150;14.004;2022-07-10T13:50:44;98344.91;;;26.07;33.58
3260;BME280;22469;48.150;14.004;2022-07-10T13:53:16;98352.63;;;25.29;33.92